Time;durP1;ratioP1;P1;durP2;ratioP2;P2;SDS_P1;SDS_P2;PMS_P1;PMS_P2;Temp;Humidity;BMP_temperature;BMP_pressure;BME280_temperature;BME280_humidity;BME280_pressure;Samples;Min_cycle;Max_cycle;Signal;HPM_P1;HPM_P2
2021/08/31 00:00:30;;;;;;;7.38;6.18;;;;;;;17.51;82.89;100174.94;5107364;28;20027;-63
2021/08/31 00:02:56;;;;;;;8.73;5.65;;;;;;;17.52;82.11;100161.22;5107884;28;20120;-63
2021/08/31 00:05:21;;;;;;;6.28;5.07;;;;;;;17.52;81.29;100173.91;5107798;28;20016;-63
2021/08/31 00:07:47;;;;;;;6.47;5.43;;;;;;;17.48;80.14;100169.91;5106826;28;20024;-63
2021/08/31 00:10:12;;;;;;;6.40;5.78;;;;;;;17.49;79.75;100172.41;5107262;28;20031;-63
2021/08/31 00:12:39;;;;;;;8.98;5.47;;;;;;;17.53;78.93;100178.31;5088939;28;20124;-64
2021/08/31 00:15:06;;;;;;;6.93;5.28;;;;;;;17.54;78.69;100185.44;5107316;28;20028;-63
2021/08/31 00:17:32;;;;;;;5.57;5.07;;;;;;;17.52;78.90;100176.63;5106916;28;20387;-63
2021/08/31 00:19:57;;;;;;;5.78;4.50;;;;;;;17.57;78.77;100179.63;5107538;28;20031;-63
2021/08/31 00:22:23;;;;;;;6.55;4.90;;;;;;;17.58;78.07;100184.88;5107838;28;20478;-63
2021/08/31 00:24:48;;;;;;;8.02;4.93;;;;;;;17.57;77.85;100182.34;5106868;28;20024;-63
2021/08/31 00:27:14;;;;;;;8.15;4.35;;;;;;;17.59;77.76;100185.72;5107545;28;20030;-64
2021/08/31 00:29:39;;;;;;;5.70;4.60;;;;;;;17.59;77.65;100181.16;5106966;28;20055;-64
2021/08/31 00:32:05;;;;;;;5.50;4.72;;;;;;;17.58;77.41;100193.00;5107396;28;20024;-63
2021/08/31 00:34:31;;;;;;;5.35;4.50;;;;;;;17.61;77.51;100192.63;5106826;28;20020;-63
2021/08/31 00:36:56;;;;;;;6.15;4.55;;;;;;;17.57;77.54;100187.75;5107558;28;20031;-63
2021/08/31 00:39:22;;;;;;;5.35;4.10;;;;;;;17.60;77.31;100185.53;5107184;28;20507;-62
2021/08/31 00:41:47;;;;;;;6.70;4.18;;;;;;;17.60;77.38;100193.66;5106607;28;20034;-63
2021/08/31 00:44:26;;;;;;;11.23;4.25;;;;;;;17.61;77.86;100184.50;5107407;28;20389;-63
2021/08/31 00:46:56;;;;;;;7.53;4.40;;;;;;;17.57;77.91;100172.34;5107106;28;20019;-63
2021/08/31 00:49:23;;;;;;;9.68;4.03;;;;;;;17.63;77.65;100179.75;5106794;28;20052;-63
2021/08/31 00:51:49;;;;;;;7.30;4.28;;;;;;;17.67;77.13;100182.94;5106644;28;20063;-63
2021/08/31 00:54:15;;;;;;;5.80;3.97;;;;;;;17.65;77.76;100175.00;5107323;28;20078;-63
2021/08/31 00:56:44;;;;;;;5.03;3.78;;;;;;;17.69;77.61;100173.59;5106369;28;20421;-63
2021/08/31 00:59:09;;;;;;;5.68;4.13;;;;;;;17.70;77.91;100175.28;5106739;28;20076;-63
2021/08/31 01:01:35;;;;;;;5.43;3.47;;;;;;;17.74;77.98;100181.19;5105906;28;20475;-63
2021/08/31 01:04:00;;;;;;;7.53;3.78;;;;;;;17.68;78.00;100173.78;5106889;28;20027;-63
2021/08/31 01:06:26;;;;;;;4.78;3.67;;;;;;;17.74;77.66;100187.44;5107054;28;20030;-63
2021/08/31 01:08:51;;;;;;;3.95;3.50;;;;;;;17.76;77.75;100189.97;5106532;28;20039;-63
2021/08/31 01:11:17;;;;;;;5.35;3.53;;;;;;;17.76;77.62;100187.25;5107028;28;20028;-63
2021/08/31 01:13:44;;;;;;;4.13;3.47;;;;;;;17.72;77.25;100181.38;5106326;28;20034;-64
2021/08/31 01:16:09;;;;;;;3.42;3.13;;;;;;;17.75;76.81;100188.28;5106423;28;20543;-64
2021/08/31 01:18:35;;;;;;;5.20;3.40;;;;;;;17.72;76.73;100194.94;5087840;28;20033;-65
2021/08/31 01:21:01;;;;;;;5.22;3.35;;;;;;;17.76;76.58;100189.97;5106696;28;20036;-64
2021/08/31 01:23:31;;;;;;;3.38;2.90;;;;;;;17.75;76.84;100191.84;5088623;28;20050;-65
2021/08/31 01:25:59;;;;;;;6.15;3.10;;;;;;;17.73;76.45;100184.91;5106853;28;20398;-62
2021/08/31 01:28:31;;;;;;;3.28;2.97;;;;;;;17.76;76.40;100192.69;5106740;28;20054;-62
2021/08/31 01:31:00;;;;;;;5.65;2.85;;;;;;;17.75;76.70;100200.00;5106679;28;20084;-64
2021/08/31 01:33:29;;;;;;;4.95;3.22;;;;;;;17.74;76.98;100192.03;5106641;28;20031;-63
2021/08/31 01:35:55;;;;;;;4.95;3.67;;;;;;;17.73;77.15;100193.03;5106342;28;20133;-64
2021/08/31 01:38:21;;;;;;;3.53;3.03;;;;;;;17.71;77.01;100195.94;5106824;28;20375;-64
2021/08/31 01:40:46;;;;;;;6.53;3.50;;;;;;;17.70;77.22;100198.84;5106066;28;20092;-64
2021/08/31 01:43:26;;;;;;;4.10;3.25;;;;;;;17.68;77.40;100198.19;5106241;28;20036;-64
2021/08/31 01:45:53;;;;;;;8.55;3.38;;;;;;;17.66;77.94;100197.53;5106332;28;20027;-63
2021/08/31 01:48:19;;;;;;;3.75;3.00;;;;;;;17.62;78.06;100202.47;5106400;28;20027;-63
2021/08/31 01:50:45;;;;;;;4.10;3.05;;;;;;;17.67;78.36;100207.38;5087527;28;20043;-63
2021/08/31 01:53:10;;;;;;;3.67;3.38;;;;;;;17.65;78.01;100212.13;5088055;28;20112;-63
2021/08/31 01:55:36;;;;;;;3.60;3.10;;;;;;;17.65;77.82;100202.13;5105825;28;20051;-63
2021/08/31 01:58:02;;;;;;;6.07;3.33;;;;;;;17.64;78.56;100205.00;5106593;28;20031;-63
2021/08/31 02:00:28;;;;;;;4.55;3.25;;;;;;;17.52;78.63;100196.47;5106899;28;20117;-64
2021/08/31 02:02:53;;;;;;;7.70;3.70;;;;;;;17.51;78.81;100202.06;5106170;28;20111;-63
2021/08/31 02:05:19;;;;;;;4.75;3.33;;;;;;;17.53;79.20;100203.56;5106326;28;20138;-63
2021/08/31 02:07:44;;;;;;;6.10;3.72;;;;;;;17.51;79.51;100199.34;5106005;28;20119;-64
2021/08/31 02:10:10;;;;;;;4.10;3.70;;;;;;;17.46;79.46;100188.19;5106273;28;20024;-63
2021/08/31 02:12:36;;;;;;;3.95;3.40;;;;;;;17.53;78.92;100200.84;5105932;28;20023;-63
2021/08/31 02:15:02;;;;;;;3.60;3.30;;;;;;;17.52;79.42;100199.19;5110046;28;20382;-63
2021/08/31 02:17:27;;;;;;;4.88;3.25;;;;;;;17.52;79.43;100199.19;5091541;28;20512;-64
2021/08/31 02:19:53;;;;;;;3.97;3.53;;;;;;;17.55;79.09;100200.69;5109328;28;20048;-64
2021/08/31 02:22:18;;;;;;;4.25;3.53;;;;;;;17.56;78.66;100199.66;5109759;28;20024;-63
2021/08/31 02:24:44;;;;;;;7.25;3.67;;;;;;;17.54;78.75;100202.53;5109043;28;20040;-63
2021/08/31 02:27:09;;;;;;;6.22;3.60;;;;;;;17.47;79.26;100195.31;5110022;28;20080;-64
2021/08/31 02:29:35;;;;;;;5.20;3.80;;;;;;;17.47;79.84;100196.16;5090990;28;20023;-63
2021/08/31 02:32:00;;;;;;;4.53;3.60;;;;;;;17.47;79.24;100196.16;5109617;28;20436;-63
2021/08/31 02:34:26;;;;;;;6.85;4.43;;;;;;;17.39;79.26;100188.06;5109516;28;20590;-64
2021/08/31 02:36:51;;;;;;;3.83;3.25;;;;;;;17.40;79.60;100207.88;5108905;28;20027;-63
2021/08/31 02:39:17;;;;;;;6.15;3.75;;;;;;;17.41;79.58;100215.81;5109630;28;20028;-63
2021/08/31 02:41:42;;;;;;;5.40;3.65;;;;;;;17.35;79.69;100213.00;5108930;28;20031;-63
2021/08/31 02:44:08;;;;;;;6.18;4.00;;;;;;;17.33;80.20;100220.47;5109345;28;20163;-63
2021/08/31 02:46:34;;;;;;;7.30;4.07;;;;;;;17.22;80.63;100199.22;5109385;28;20020;-64
2021/08/31 02:48:59;;;;;;;7.15;4.15;;;;;;;17.28;81.02;100209.34;5109167;28;20048;-64
2021/08/31 02:51:25;;;;;;;6.68;4.55;;;;;;;17.25;81.40;100204.28;5109239;28;20108;-63
2021/08/31 02:53:50;;;;;;;7.32;4.72;;;;;;;17.27;81.31;100215.75;5108471;28;20035;-64
2021/08/31 02:56:16;;;;;;;11.38;5.28;;;;;;;17.18;81.45;100212.25;5108842;28;20059;-64
2021/08/31 02:58:41;;;;;;;8.75;4.45;;;;;;;17.16;82.08;100217.00;5109150;28;20055;-63
2021/08/31 03:01:30;;;;;;;6.25;4.50;;;;;;;17.15;82.79;100219.94;5108958;28;20081;-63
2021/08/31 03:03:56;;;;;;;10.23;5.70;;;;;;;17.14;83.00;100221.78;5108866;28;20035;-63
2021/08/31 03:06:26;;;;;;;11.07;5.55;;;;;;;17.17;82.96;100226.00;5090378;28;20031;-64
2021/08/31 03:08:52;;;;;;;8.50;5.55;;;;;;;17.13;83.49;100224.66;5108458;28;20024;-63
2021/08/31 03:11:18;;;;;;;9.63;4.97;;;;;;;17.07;84.06;100226.22;5109111;28;20027;-63
2021/08/31 03:13:44;;;;;;;8.50;4.93;;;;;;;17.07;84.58;100236.22;5108272;28;20106;-63
2021/08/31 03:16:09;;;;;;;7.75;4.25;;;;;;;17.03;84.86;100227.59;5108617;28;20107;-63
2021/08/31 03:18:35;;;;;;;13.65;5.47;;;;;;;17.03;84.92;100230.28;5108358;28;20446;-63
2021/08/31 03:21:00;;;;;;;10.23;5.10;;;;;;;17.04;85.39;100236.56;5109028;28;20073;-63
2021/08/31 03:23:26;;;;;;;7.95;4.90;;;;;;;17.02;85.42;100233.19;5108263;28;20092;-63
2021/08/31 03:25:51;;;;;;;6.43;4.57;;;;;;;16.96;85.94;100223.09;5107788;28;20023;-63
2021/08/31 03:28:17;;;;;;;7.78;4.50;;;;;;;17.01;85.77;100234.22;5108641;28;20588;-63
2021/08/31 03:30:42;;;;;;;6.85;4.47;;;;;;;16.99;86.31;100234.41;5107247;28;20074;-63
2021/08/31 03:33:08;;;;;;;8.90;4.55;;;;;;;16.96;85.95;100228.50;5107588;28;20027;-63
2021/08/31 03:35:33;;;;;;;7.72;5.07;;;;;;;16.91;85.51;100220.06;5107369;28;20399;-63
2021/08/31 03:37:59;;;;;;;8.68;4.85;;;;;;;16.87;85.88;100221.44;5107674;28;20269;-63
2021/08/31 03:40:24;;;;;;;6.00;4.50;;;;;;;16.95;85.93;100243.91;5107784;28;20487;-63
2021/08/31 03:42:49;;;;;;;10.68;4.80;;;;;;;16.97;85.81;100249.16;5107577;28;20509;-64
2021/08/31 03:45:16;;;;;;;6.30;4.22;;;;;;;16.97;85.33;100247.28;5108077;28;20019;-63
2021/08/31 03:47:42;;;;;;;8.50;4.15;;;;;;;16.97;85.37;100247.28;5089036;28;20415;-63
2021/08/31 03:50:08;;;;;;;8.57;4.50;;;;;;;16.99;84.84;100247.13;5107608;28;20048;-63
2021/08/31 03:52:34;;;;;;;9.20;4.05;;;;;;;17.01;84.49;100248.63;5108152;28;20041;-63
2021/08/31 03:54:59;;;;;;;6.47;4.40;;;;;;;16.98;84.46;100245.41;5107963;28;20028;-63
2021/08/31 03:57:25;;;;;;;5.05;4.20;;;;;;;16.96;84.45;100239.34;5107841;28;20102;-63
2021/08/31 03:59:50;;;;;;;6.45;4.00;;;;;;;16.85;84.25;100220.75;5107427;28;20047;-64
2021/08/31 04:02:16;;;;;;;5.45;4.35;;;;;;;16.97;84.20;100238.31;5107515;28;20034;-63
2021/08/31 04:04:41;;;;;;;4.68;4.00;;;;;;;16.91;84.63;100226.31;5106551;28;20526;-63
2021/08/31 04:07:07;;;;;;;10.00;4.50;;;;;;;16.90;84.42;100226.50;5107711;28;20035;-63
2021/08/31 04:09:32;;;;;;;6.95;4.53;;;;;;;16.91;84.51;100229.03;5107640;28;20035;-63
2021/08/31 04:11:58;;;;;;;5.05;4.03;;;;;;;16.85;85.07;100231.59;5107750;28;20057;-63
2021/08/31 04:14:23;;;;;;;4.95;4.07;;;;;;;16.83;85.11;100222.81;5108110;28;20023;-64
2021/08/31 04:16:49;;;;;;;7.35;4.30;;;;;;;16.94;85.41;100239.53;5107241;28;20365;-64
2021/08/31 04:19:14;;;;;;;5.32;3.38;;;;;;;16.83;85.55;100214.69;5107573;28;20027;-64
2021/08/31 04:21:40;;;;;;;5.50;3.70;;;;;;;16.95;85.98;100240.34;5107074;28;20020;-64
2021/08/31 04:24:06;;;;;;;3.95;3.55;;;;;;;16.92;86.17;100237.97;5108126;28;20118;-65
2021/08/31 04:26:31;;;;;;;6.60;3.75;;;;;;;16.94;85.87;100238.66;5107261;28;20027;-64
2021/08/31 04:28:57;;;;;;;6.28;4.10;;;;;;;16.92;86.32;100246.09;5107909;28;20447;-64
2021/08/31 04:31:23;;;;;;;6.00;3.63;;;;;;;16.95;86.12;100251.19;5107523;28;20436;-65
2021/08/31 04:33:52;;;;;;;7.00;3.88;;;;;;;16.89;86.99;100251.88;5106868;28;20032;-62
2021/08/31 04:36:18;;;;;;;5.90;3.47;;;;;;;16.82;87.23;100253.63;5106090;28;20055;-63
2021/08/31 04:38:44;;;;;;;5.40;3.75;;;;;;;16.79;87.97;100256.66;5106729;28;20403;-63
2021/08/31 04:41:10;;;;;;;6.65;4.18;;;;;;;16.68;88.35;100249.78;5106806;28;20034;-63
2021/08/31 04:43:36;;;;;;;7.00;4.25;;;;;;;16.75;88.82;100249.91;5107277;28;20024;-64
2021/08/31 04:46:01;;;;;;;4.78;3.70;;;;;;;16.77;89.01;100266.84;5107316;28;20022;-64
2021/08/31 04:48:27;;;;;;;5.43;3.53;;;;;;;16.74;89.15;100259.06;5106982;28;20114;-64
2021/08/31 04:50:53;;;;;;;4.95;3.88;;;;;;;16.68;89.44;100263.34;5088478;28;20524;-64
2021/08/31 04:53:20;;;;;;;5.70;3.90;;;;;;;16.66;90.22;100267.22;5107064;28;20550;-64
2021/08/31 04:55:45;;;;;;;7.47;3.75;;;;;;;16.56;90.62;100263.88;5106616;28;20395;-64
2021/08/31 04:58:11;;;;;;;5.13;3.70;;;;;;;16.62;91.07;100279.44;5107133;28;20019;-64
2021/08/31 05:00:36;;;;;;;5.38;3.97;;;;;;;16.64;91.12;100270.09;5106944;28;20030;-64
2021/08/31 05:03:02;;;;;;;4.90;3.83;;;;;;;16.69;91.45;100275.84;5107273;28;20023;-64
2021/08/31 05:05:27;;;;;;;7.90;3.95;;;;;;;16.74;91.23;100278.03;5106927;28;20531;-64
2021/08/31 05:07:53;;;;;;;7.05;4.05;;;;;;;16.79;91.05;100264.78;5106576;28;20491;-64
2021/08/31 05:10:18;;;;;;;5.22;4.13;;;;;;;16.86;90.63;100271.22;5107409;28;20028;-64
2021/08/31 05:12:44;;;;;;;6.20;4.30;;;;;;;16.87;89.47;100257.50;5106387;28;20045;-64
2021/08/31 05:15:10;;;;;;;4.93;4.40;;;;;;;16.95;88.24;100262.88;5106446;28;20043;-62
2021/08/31 05:17:36;;;;;;;6.47;4.88;;;;;;;17.08;87.34;100271.28;5106025;28;20020;-63
2021/08/31 05:20:05;;;;;;;5.57;4.20;;;;;;;17.16;86.18;100267.69;5106681;28;20085;-63
2021/08/31 05:22:31;;;;;;;5.45;4.40;;;;;;;17.25;85.39;100266.63;5106397;28;20031;-62
2021/08/31 05:24:58;;;;;;;7.95;5.15;;;;;;;17.35;83.25;100259.09;5106520;28;20043;-63
2021/08/31 05:27:24;;;;;;;5.60;4.22;;;;;;;17.41;82.20;100261.09;5107215;28;20027;-62
2021/08/31 05:29:50;;;;;;;7.68;5.07;;;;;;;17.53;80.79;100273.22;5106425;28;20050;-63
2021/08/31 05:32:16;;;;;;;6.93;5.00;;;;;;;17.56;80.23;100271.00;5106578;28;20028;-63
2021/08/31 05:34:42;;;;;;;6.13;5.15;;;;;;;17.61;80.42;100270.47;5106541;28;20050;-63
2021/08/31 05:37:08;;;;;;;10.13;5.88;;;;;;;17.64;81.05;100281.78;5107018;28;20031;-63
2021/08/31 05:39:33;;;;;;;5.53;5.03;;;;;;;17.74;80.43;100289.69;5106144;28;20024;-63
2021/08/31 05:42:07;;;;;;;8.73;6.53;;;;;;;17.77;79.63;100278.50;5106523;28;20035;-63
2021/08/31 05:44:34;;;;;;;6.03;5.28;;;;;;;17.94;78.35;100282.75;5105488;28;20115;-62
2021/08/31 05:47:01;;;;;;;6.72;5.90;;;;;;;18.02;77.79;100278.09;5105809;28;20588;-63
2021/08/31 05:49:26;;;;;;;6.65;5.18;;;;;;;18.22;75.84;100270.28;5106859;28;20040;-64
2021/08/31 05:51:55;;;;;;;6.85;5.47;;;;;;;18.21;75.97;100276.72;5109406;28;20479;-64
2021/08/31 05:54:20;;;;;;;7.75;4.78;;;;;;;18.37;73.92;100282.03;5110111;28;20055;-63
2021/08/31 05:56:47;;;;;;;7.15;5.53;;;;;;;18.48;73.49;100281.59;5109651;28;20542;-64
2021/08/31 05:59:13;;;;;;;7.78;5.32;;;;;;;18.66;72.29;100276.63;5109955;28;20126;-63
2021/08/31 06:01:40;;;;;;;5.78;5.05;;;;;;;18.68;72.66;100274.56;5110042;28;20387;-64
2021/08/31 06:04:05;;;;;;;7.00;4.40;;;;;;;18.80;71.66;100270.31;5109944;28;20034;-64
2021/08/31 06:06:31;;;;;;;6.18;4.40;;;;;;;18.87;71.72;100278.59;5109460;28;20024;-64
2021/08/31 06:08:56;;;;;;;5.13;4.35;;;;;;;19.09;69.23;100264.03;5109751;28;20156;-64
2021/08/31 06:11:22;;;;;;;6.28;4.47;;;;;;;19.16;69.58;100268.53;5109904;28;20026;-64
2021/08/31 06:13:48;;;;;;;6.85;3.78;;;;;;;19.25;68.99;100269.25;5091014;28;20428;-63
2021/08/31 06:16:13;;;;;;;6.72;3.80;;;;;;;19.38;68.12;100266.72;5091153;28;20028;-63
2021/08/31 06:18:39;;;;;;;5.63;3.40;;;;;;;19.46;67.88;100264.72;5109832;28;20031;-63
2021/08/31 06:21:04;;;;;;;3.97;3.15;;;;;;;19.58;66.84;100267.75;5109709;28;20080;-63
2021/08/31 06:23:30;;;;;;;6.45;3.63;;;;;;;19.63;67.03;100260.69;5109691;28;20027;-62
2021/08/31 06:25:55;;;;;;;4.05;3.17;;;;;;;19.78;66.31;100261.47;5109205;28;20031;-63
2021/08/31 06:28:21;;;;;;;4.95;3.13;;;;;;;19.82;65.99;100254.59;5091405;28;20023;-63
2021/08/31 06:30:46;;;;;;;4.97;3.20;;;;;;;19.96;65.42;100259.13;5109029;28;20114;-63
2021/08/31 06:33:12;;;;;;;4.68;3.38;;;;;;;20.08;65.27;100257.56;5103539;28;20027;-63
2021/08/31 06:35:37;;;;;;;3.38;2.95;;;;;;;20.15;64.83;100255.75;5107111;28;20028;-63
2021/08/31 06:38:03;;;;;;;4.05;3.17;;;;;;;20.35;63.97;100266.81;5109168;28;20379;-63
2021/08/31 06:40:28;;;;;;;3.20;2.65;;;;;;;20.49;63.17;100256.81;5109424;28;20423;-63
2021/08/31 06:42:54;;;;;;;4.05;2.95;;;;;;;20.52;63.56;100250.97;5108790;28;20407;-63
2021/08/31 06:45:20;;;;;;;6.13;2.80;;;;;;;20.69;63.15;100258.63;5109021;28;20624;-63
2021/08/31 06:47:45;;;;;;;4.18;2.78;;;;;;;20.91;61.37;100256.66;5108620;28;21032;-63
2021/08/31 06:50:15;;;;;;;3.97;2.88;;;;;;;20.96;61.53;100246.03;5090781;28;20128;-63
2021/08/31 06:52:41;;;;;;;5.30;2.88;;;;;;;21.11;61.11;100243.97;5109057;28;20035;-63
2021/08/31 06:55:08;;;;;;;3.30;2.65;;;;;;;21.22;60.26;100246.13;5109430;28;20421;-63
2021/08/31 06:57:33;;;;;;;3.78;2.92;;;;;;;21.32;60.01;100247.44;5108162;28;20027;-64
2021/08/31 06:59:59;;;;;;;4.45;2.90;;;;;;;21.29;59.53;100223.28;5108088;28;20494;-63
2021/08/31 07:02:24;;;;;;;3.00;2.72;;;;;;;21.49;59.12;100240.53;5090341;28;20039;-63
2021/08/31 07:04:50;;;;;;;3.90;2.50;;;;;;;21.60;58.99;100239.91;5108685;28;20030;-63
2021/08/31 07:07:15;;;;;;;3.10;2.65;;;;;;;21.67;58.45;100229.03;5090751;28;20467;-63
2021/08/31 07:09:41;;;;;;;6.00;2.58;;;;;;;21.88;57.36;100237.03;5087934;28;20038;-64
2021/08/31 07:12:07;;;;;;;3.83;2.72;;;;;;;21.94;57.27;100244.41;5108573;28;20386;-63
2021/08/31 07:14:32;;;;;;;2.35;2.15;;;;;;;22.03;57.13;100243.97;5108208;28;20035;-64
2021/08/31 07:16:57;;;;;;;3.78;2.53;;;;;;;22.17;57.23;100244.81;5108425;28;20476;-63
2021/08/31 07:19:23;;;;;;;4.35;2.50;;;;;;;22.29;56.54;100240.41;5108469;28;20042;-63
2021/08/31 07:21:50;;;;;;;4.38;2.42;;;;;;;22.49;55.85;100249.44;5108024;28;20016;-63
2021/08/31 07:24:15;;;;;;;3.13;2.63;;;;;;;22.59;54.98;100246.25;5108703;28;20035;-63
2021/08/31 07:26:41;;;;;;;3.65;2.78;;;;;;;22.73;54.05;100262.41;5107954;28;20487;-63
2021/08/31 07:29:06;;;;;;;4.40;2.55;;;;;;;22.75;53.98;100254.84;5108174;28;20416;-64
2021/08/31 07:31:33;;;;;;;7.55;3.25;;;;;;;22.93;54.13;100265.09;5107867;28;20059;-63
2021/08/31 07:33:58;;;;;;;3.08;2.60;;;;;;;22.98;53.98;100257.06;5089734;28;20569;-63
2021/08/31 07:36:24;;;;;;;6.30;2.85;;;;;;;23.23;53.12;100272.59;5108121;28;20098;-63
2021/08/31 07:38:53;;;;;;;3.78;2.92;;;;;;;23.35;51.82;100261.81;5107651;28;20106;-63
2021/08/31 07:41:18;;;;;;;3.75;2.60;;;;;;;23.38;52.54;100269.59;5108183;28;20031;-63
2021/08/31 07:43:45;;;;;;;3.15;2.30;;;;;;;23.40;52.73;100262.81;5089627;28;20391;-64
2021/08/31 07:46:11;;;;;;;3.03;2.72;;;;;;;23.53;52.28;100270.13;5107754;28;20701;-63
2021/08/31 07:48:36;;;;;;;3.17;2.88;;;;;;;23.62;52.73;100269.66;5107531;28;20065;-64
2021/08/31 07:51:02;;;;;;;4.75;2.92;;;;;;;23.79;51.89;100280.91;5089438;28;20471;-63
2021/08/31 07:53:27;;;;;;;3.38;3.03;;;;;;;23.85;51.58;100264.44;5107812;28;20466;-63
2021/08/31 07:55:53;;;;;;;3.85;2.70;;;;;;;23.90;51.73;100258.31;5107474;28;20475;-63
2021/08/31 07:58:18;;;;;;;3.78;2.90;;;;;;;24.11;51.09;100267.00;5107954;28;20475;-63
2021/08/31 08:01:05;;;;;;;4.45;2.90;;;;;;;24.17;50.88;100268.88;5107237;28;20015;-63
2021/08/31 08:03:31;;;;;;;3.95;3.00;;;;;;;24.27;50.78;100266.47;4989109;28;20049;-65
2021/08/31 08:05:56;;;;;;;5.15;3.63;;;;;;;24.53;49.70;100261.81;4991552;28;20031;-65
2021/08/31 08:08:22;;;;;;;4.50;3.05;;;;;;;24.64;49.84;100255.59;4989996;28;20491;-65
2021/08/31 08:10:47;;;;;;;4.93;3.55;;;;;;;24.87;49.60;100245.63;4991658;28;20483;-65
2021/08/31 08:13:12;;;;;;;4.25;2.47;;;;;;;25.38;48.26;100246.06;4992238;28;20469;-65
2021/08/31 08:15:38;;;;;;;2.75;2.50;;;;;;;26.01;45.89;100249.16;4992303;28;20030;-66
2021/08/31 08:18:04;;;;;;;2.92;2.53;;;;;;;26.79;44.34;100245.00;4992382;28;20487;-65
2021/08/31 08:20:29;;;;;;;2.28;2.08;;;;;;;27.62;43.21;100245.38;4993051;28;20034;-65
2021/08/31 08:22:55;;;;;;;3.75;2.45;;;;;;;28.80;40.36;100226.72;4992688;28;20061;-65
2021/08/31 08:25:20;;;;;;;2.10;1.88;;;;;;;29.73;38.83;100238.41;4992581;28;20069;-66
2021/08/31 08:27:46;;;;;;;2.88;1.98;;;;;;;30.90;36.16;100226.09;4992615;28;20451;-66
2021/08/31 08:30:12;;;;;;;2.65;2.15;;;;;;;31.50;35.16;100225.53;4992515;28;20038;-65
2021/08/31 08:32:38;;;;;;;3.92;1.95;;;;;;;31.83;34.56;100233.41;4992484;28;20549;-65
2021/08/31 08:35:10;;;;;;;3.63;2.40;;;;;;;32.04;33.90;100227.59;4991362;28;20038;-66
2021/08/31 08:37:36;;;;;;;4.10;1.95;;;;;;;32.13;33.89;100231.47;4992488;28;20029;-66
2021/08/31 08:40:02;;;;;;;4.38;2.03;;;;;;;32.00;33.94;100242.28;4991345;28;20030;-66
2021/08/31 08:42:28;;;;;;;1.75;1.65;;;;;;;31.57;35.04;100226.94;4991362;28;20539;-64
2021/08/31 08:44:53;;;;;;;4.47;2.05;;;;;;;31.72;34.28;100226.97;4992362;28;20078;-65
2021/08/31 08:47:19;;;;;;;2.63;2.13;;;;;;;31.30;35.21;100229.06;4992484;28;20022;-65
2021/08/31 08:49:46;;;;;;;2.20;1.95;;;;;;;31.08;35.08;100224.81;4992447;28;20019;-65
2021/08/31 08:52:11;;;;;;;2.92;2.17;;;;;;;30.42;36.36;100246.53;4992093;28;20081;-65
2021/08/31 08:54:37;;;;;;;3.15;2.10;;;;;;;30.04;36.45;100234.81;4992334;28;20434;-65
2021/08/31 08:57:03;;;;;;;3.58;2.22;;;;;;;29.98;36.37;100252.50;4992096;28;20125;-65
2021/08/31 08:59:29;;;;;;;2.83;2.00;;;;;;;29.40;37.51;100238.59;4992209;28;20113;-65
2021/08/31 09:01:55;;;;;;;4.53;2.13;;;;;;;28.96;38.77;100246.00;4998606;28;20057;-65
2021/08/31 09:04:43;;;;;;;3.85;2.35;;;;;;;28.43;38.88;100246.59;5011959;28;20483;-66
2021/08/31 09:07:25;;;;;;;4.25;2.00;;;;;;;28.45;38.81;100238.94;5011703;28;20049;-65
2021/08/31 09:10:10;;;;;;;3.25;2.03;;;;;;;28.07;39.71;100221.44;5011546;28;20116;-65
2021/08/31 09:12:36;;;;;;;2.03;1.90;;;;;;;27.68;40.39;100239.75;5010385;28;20038;-65
2021/08/31 09:15:25;;;;;;;2.20;2.00;;;;;;;27.55;40.33;100239.19;5011655;28;20502;-66
2021/08/31 09:18:25;;;;;;;2.35;2.13;;;;;;;27.24;41.42;100236.94;5011724;28;20058;-65
2021/08/31 09:20:54;;;;;;;2.22;2.00;;;;;;;27.11;41.54;100238.00;5011583;28;20022;-66
2021/08/31 09:23:22;;;;;;;2.67;2.20;;;;;;;27.01;41.71;100235.03;5013288;28;20156;-66
2021/08/31 09:25:51;;;;;;;1.90;1.80;;;;;;;26.87;41.47;100227.28;5015537;28;20101;-66
2021/08/31 09:28:28;;;;;;;4.22;2.40;;;;;;;27.00;41.16;100232.53;5015387;28;20510;-65
2021/08/31 09:31:00;;;;;;;2.28;2.08;;;;;;;26.81;41.15;100231.84;5030737;28;20073;-66
2021/08/31 09:33:29;;;;;;;3.58;2.33;;;;;;;26.90;41.13;100235.91;5013963;28;20399;-66
2021/08/31 09:36:22;;;;;;;2.25;1.90;;;;;;;26.83;41.11;100229.72;5015121;28;20037;-66
2021/08/31 09:38:50;;;;;;;5.15;1.85;;;;;;;26.65;42.27;100232.59;5013622;28;20029;-67
2021/08/31 09:41:45;;;;;;;3.72;2.30;;;;;;;26.59;41.76;100230.78;5015257;28;20052;-66
2021/08/31 09:44:24;;;;;;;1.95;1.75;;;;;;;26.43;42.01;100231.50;5006313;28;20049;-67
2021/08/31 09:46:57;;;;;;;1.98;1.60;;;;;;;26.39;41.09;100235.81;5015151;28;20058;-66
2021/08/31 09:49:25;;;;;;;3.05;1.65;;;;;;;26.35;40.65;100229.13;5015213;28;20057;-66
2021/08/31 09:52:15;;;;;;;2.15;1.85;;;;;;;26.24;41.51;100235.44;5015080;28;20033;-67
2021/08/31 09:54:42;;;;;;;1.73;1.50;;;;;;;26.17;42.30;100235.56;5013737;28;20052;-66
2021/08/31 09:57:37;;;;;;;3.30;1.60;;;;;;;26.12;42.66;100231.84;5014927;28;20037;-66
2021/08/31 10:00:10;;;;;;;1.70;1.60;;;;;;;26.08;42.49;100222.38;5014929;28;20022;-66
2021/08/31 10:02:37;;;;;;;1.20;1.10;;;;;;;26.04;42.57;100230.28;5030116;28;20140;-66
2021/08/31 10:05:04;;;;;;;1.90;1.45;;;;;;;26.05;42.99;100239.38;5014675;28;20051;-66
2021/08/31 10:07:31;;;;;;;4.10;1.25;;;;;;;25.91;43.45;100232.38;5014799;28;20560;-66
2021/08/31 10:09:59;;;;;;;3.05;1.33;;;;;;;25.89;42.97;100240.03;5014774;28;20457;-66
2021/08/31 10:12:24;;;;;;;1.27;1.10;;;;;;;25.68;43.50;100238.66;5014669;28;20022;-66
2021/08/31 10:14:56;;;;;;;1.75;0.90;;;;;;;25.68;42.83;100243.31;5030081;28;20041;-65
2021/08/31 10:17:27;;;;;;;1.83;1.00;;;;;;;25.49;43.36;100236.19;5014570;28;20499;-65
2021/08/31 10:19:56;;;;;;;3.15;1.20;;;;;;;25.41;43.56;100220.03;5014531;28;20482;-66
2021/08/31 10:22:22;;;;;;;1.05;1.00;;;;;;;25.48;43.79;100234.50;5013378;28;20434;-66
2021/08/31 10:24:48;;;;;;;1.48;1.17;;;;;;;25.42;43.82;100224.44;5014549;28;20112;-65
2021/08/31 10:27:44;;;;;;;1.58;0.90;;;;;;;25.36;44.22;100239.09;5014449;28;20037;-65
2021/08/31 10:30:21;;;;;;;3.85;1.00;;;;;;;25.30;44.66;100231.75;5009824;28;20041;-65
2021/08/31 10:32:53;;;;;;;0.80;0.80;;;;;;;25.28;43.91;100226.50;5013137;28;20038;-65
2021/08/31 10:35:42;;;;;;;1.40;1.00;;;;;;;25.20;44.41;100232.31;5013473;28;20495;-65
2021/08/31 10:38:13;;;;;;;1.63;1.13;;;;;;;25.25;43.58;100215.16;5014431;28;20030;-65
2021/08/31 10:40:40;;;;;;;1.75;1.02;;;;;;;25.22;43.93;100223.84;5014343;28;20029;-65
2021/08/31 10:43:08;;;;;;;1.90;0.98;;;;;;;25.26;43.24;100222.31;5014160;28;20034;-65
2021/08/31 10:45:35;;;;;;;1.23;1.10;;;;;;;25.21;42.99;100209.28;5014211;28;20087;-65
2021/08/31 10:48:21;;;;;;;1.65;1.02;;;;;;;25.22;42.96;100219.22;5013939;28;20470;-65
2021/08/31 10:50:50;;;;;;;2.35;1.20;;;;;;;25.27;42.94;100204.75;5012699;28;20121;-66
2021/08/31 10:53:44;;;;;;;2.88;1.50;;;;;;;25.24;42.67;100221.72;5013747;28;20360;-66
2021/08/31 10:56:22;;;;;;;;;;;;;;;25.25;42.20;100237.13;5012976;28;20123;-65
2021/08/31 10:58:59;;;;;;;1.88;1.10;;;;;;;25.26;42.45;100222.31;5012710;28;20374;-65
2021/08/31 11:01:36;;;;;;;2.47;1.10;;;;;;;25.24;41.63;100217.06;5013706;28;20451;-65
2021/08/31 11:04:22;;;;;;;1.08;0.98;;;;;;;25.22;42.02;100212.88;5012446;28;20042;-65
2021/08/31 11:06:57;;;;;;;2.17;1.10;;;;;;;25.18;42.41;100209.75;5013571;28;20423;-66
2021/08/31 11:09:23;;;;;;;0.98;0.98;;;;;;;25.12;42.13;100209.84;5013628;28;20053;-65
2021/08/31 11:12:03;;;;;;;1.30;0.80;;;;;;;25.11;42.74;100210.94;5013522;28;20037;-65
2021/08/31 11:14:53;;;;;;;3.65;1.00;;;;;;;25.21;42.01;100213.97;5013592;28;20032;-65
2021/08/31 11:17:42;;;;;;;1.30;1.08;;;;;;;25.04;42.50;100215.63;5013365;28;20034;-65
2021/08/31 11:20:13;;;;;;;2.92;1.23;;;;;;;24.94;42.69;100218.94;5007780;28;20037;-65
2021/08/31 11:22:39;;;;;;;1.45;1.00;;;;;;;24.91;42.67;100213.06;5013620;28;20481;-65
2021/08/31 11:25:05;;;;;;;2.40;1.17;;;;;;;24.81;43.00;100212.75;5011969;28;20173;-65
2021/08/31 11:27:48;;;;;;;2.83;1.42;;;;;;;24.76;42.86;100220.84;5013410;28;20050;-66